Terminal Aerodrome Forecast
Issued by NWS Boston, MA

Home | Current Version | Previous Version | Text Only | Print | Product List | Glossary On
Versions: 1 2 3 4 5 6 7 8 9 10 11 12 13 14 15 16 17 18 19 20 21 22 23 24 25
000
FTUS41 KBOX 221311 AAA
TAFBOS
TAF AMD
KBOS 221311Z 2213/2318 18008KT 3SM -RA OVC060
     FM221430 14004KT 2SM RA BR OVC010
     FM221700 10005KT 2SM RA BR OVC008
     FM222300 32013G25KT P6SM SCT040
     FM230900 31010G20KT P6SM SKC
     FM231600 29010KT P6SM SKC=

USA.gov is the U.S. government's official web portal to all federal, state and local government web resources and services.